createdAt,value
2019-04-10T00:01:19.439Z,68.83
2019-04-10T00:03:50.558Z,65.73
2019-04-10T00:06:21.648Z,63.77
2019-04-10T00:08:52.863Z,68.70
2019-04-10T00:11:24.823Z,69.13
2019-04-10T00:13:55.713Z,70.87
2019-04-10T00:16:26.445Z,72.97
2019-04-10T00:19:09.318Z,69.03
2019-04-10T00:21:40.034Z,68.53
2019-04-10T00:24:11.509Z,72.87
2019-04-10T00:26:42.336Z,75.33
2019-04-10T00:29:14.087Z,73.03
2019-04-10T00:31:44.780Z,73.00
2019-04-10T00:34:15.708Z,70.43
2019-04-10T00:36:46.394Z,77.53
2019-04-10T00:39:18.063Z,78.83
2019-04-10T00:41:48.905Z,72.00
2019-04-10T00:44:19.621Z,79.77
2019-04-10T00:46:50.671Z,75.90
2019-04-10T00:49:21.814Z,69.17
2019-04-10T00:51:52.631Z,74.83
2019-04-10T00:54:23.743Z,71.97
2019-04-10T00:56:54.532Z,73.57
2019-04-10T00:59:26.143Z,80.63
2019-04-10T01:01:56.895Z,77.93
2019-04-10T01:04:28.617Z,73.27
2019-04-10T01:07:00.150Z,76.90
2019-04-10T01:09:31.191Z,70.87
2019-04-10T01:12:01.862Z,72.07
2019-04-10T01:14:33.830Z,75.87
2019-04-10T01:17:04.704Z,74.83
2019-04-10T01:19:36.358Z,75.83
2019-04-10T01:22:07.246Z,75.33
2019-04-10T01:24:38.024Z,73.40
2019-04-10T01:27:09.515Z,75.10
2019-04-10T01:29:40.646Z,70.03
2019-04-10T01:32:12.009Z,68.10
2019-04-10T01:34:43.392Z,67.93
2019-04-10T01:37:14.134Z,71.63
2019-04-10T01:39:44.952Z,69.27
2019-04-10T01:42:16.553Z,62.77
2019-04-10T01:44:47.539Z,70.63
2019-04-10T01:47:19.223Z,67.03
2019-04-10T01:49:50.323Z,59.77
2019-04-10T01:52:21.163Z,63.53
2019-04-10T01:54:51.937Z,60.43
2019-04-10T01:57:22.626Z,61.83
2019-04-10T01:59:54.228Z,60.77
2019-04-10T02:02:47.690Z,57.23
2019-04-10T02:05:18.803Z,58.10
2019-04-10T02:08:01.212Z,56.23
2019-04-10T02:10:21.982Z,59.93
2019-04-10T02:12:52.740Z,52.07
2019-04-10T02:15:23.475Z,53.27
2019-04-10T02:17:55.117Z,51.93
2019-04-10T02:20:27.073Z,55.40
2019-04-10T02:22:58.247Z,52.13
2019-04-10T02:25:29.090Z,54.37
2019-04-10T02:27:59.836Z,52.77
2019-04-10T02:30:32.414Z,48.23
2019-04-10T02:33:04.237Z,54.00
2019-04-10T02:35:36.175Z,47.70
2019-04-10T02:38:26.009Z,47.93
2019-04-10T02:40:39.479Z,44.33
2019-04-10T02:43:11.818Z,48.07
2019-04-10T02:45:44.396Z,46.67
2019-04-10T02:48:17.114Z,42.27
2019-04-10T02:50:49.232Z,43.73
2019-04-10T02:53:21.414Z,41.67
2019-04-10T02:55:53.651Z,39.40
2019-04-10T02:58:24.804Z,42.23
2019-04-10T03:00:56.317Z,42.10
2019-04-10T03:03:27.593Z,39.77
2019-04-10T03:05:58.774Z,38.10
2019-04-10T03:08:44.915Z,36.90
2019-04-10T03:11:05.040Z,38.77
2019-04-10T03:13:35.880Z,38.77
2019-04-10T03:16:07.482Z,32.70
2019-04-10T03:18:39.101Z,34.80
2019-04-10T03:21:10.999Z,37.63
2019-04-10T03:23:42.329Z,33.83
2019-04-10T03:26:13.124Z,33.30
2019-04-10T03:28:44.170Z,37.77
2019-04-10T03:31:15.744Z,35.50
2019-04-10T03:34:08.145Z,36.30
2019-04-10T03:36:38.148Z,32.70
2019-04-10T03:39:10.557Z,32.50
2019-04-10T03:41:42.155Z,32.37
2019-04-10T03:44:13.026Z,31.13
2019-04-10T03:46:44.758Z,32.70
2019-04-10T03:49:15.824Z,32.63
2019-04-10T03:51:47.116Z,28.93
2019-04-10T03:54:18.699Z,32.70
2019-04-10T03:56:50.027Z,29.97
2019-04-10T03:59:20.842Z,32.83
2019-04-10T04:01:51.609Z,33.70
2019-04-10T04:04:22.369Z,31.23
2019-04-10T04:06:53.111Z,32.23
2019-04-10T04:09:23.887Z,32.93
2019-04-10T04:11:54.613Z,30.90
2019-04-10T04:14:25.411Z,29.63
2019-04-10T04:16:56.107Z,28.83
2019-04-10T04:19:26.883Z,31.90
2019-04-10T04:21:58.463Z,32.20
2019-04-10T04:24:29.397Z,31.10
2019-04-10T04:27:00.588Z,29.90
2019-04-10T04:29:32.289Z,29.37
2019-04-10T04:32:03.194Z,28.83
2019-04-10T04:34:34.696Z,29.57
2019-04-10T04:37:05.586Z,28.97
2019-04-10T04:39:37.296Z,31.50
2019-04-10T04:42:09.188Z,30.13
2019-04-10T04:44:39.995Z,29.70
2019-04-10T04:47:10.731Z,31.63
2019-04-10T04:49:42.094Z,32.73
2019-04-10T04:52:13.982Z,28.43
2019-04-10T04:54:45.621Z,28.00
2019-04-10T04:57:17.007Z,28.83
2019-04-10T04:59:48.312Z,31.03
2019-04-10T05:02:19.935Z,31.07
2019-04-10T05:04:51.471Z,33.17
2019-04-10T05:07:22.544Z,27.57
2019-04-10T05:09:53.701Z,29.30
2019-04-10T05:12:25.508Z,32.17
2019-04-10T05:14:56.324Z,30.73
2019-04-10T05:17:27.017Z,27.43
2019-04-10T05:19:58.716Z,31.67
2019-04-10T05:22:29.463Z,27.37
2019-04-10T05:25:00.670Z,29.23
2019-04-10T05:27:31.422Z,30.47
2019-04-10T05:30:02.393Z,29.50
2019-04-10T05:32:33.336Z,27.43
2019-04-10T05:35:06.888Z,28.87
2019-04-10T05:37:37.927Z,32.87
2019-04-10T05:40:09.799Z,30.93
2019-04-10T05:42:41.579Z,31.73
2019-04-10T05:45:12.887Z,32.60
2019-04-10T05:47:44.454Z,30.70
2019-04-10T05:50:15.282Z,28.97
2019-04-10T05:52:45.996Z,28.47
2019-04-10T05:55:16.732Z,29.63
2019-04-10T05:57:47.409Z,30.37
2019-04-10T06:00:18.955Z,33.17
2019-04-10T06:02:50.294Z,30.80
2019-04-10T06:05:22.121Z,30.17
2019-04-10T06:07:53.833Z,27.00
2019-04-10T06:10:24.751Z,29.47
2019-04-10T06:12:55.467Z,29.30
2019-04-10T06:15:26.605Z,26.03
2019-04-10T06:17:58.612Z,30.50
2019-04-10T06:20:29.504Z,29.43
2019-04-10T06:23:01.240Z,30.97
2019-04-10T06:25:34.030Z,30.93
2019-04-10T06:28:05.332Z,27.67
2019-04-10T06:30:36.348Z,31.93
2019-04-10T06:33:07.553Z,31.00
2019-04-10T06:35:38.423Z,29.20
2019-04-10T06:38:09.131Z,31.40
2019-04-10T06:40:39.888Z,31.97
2019-04-10T06:43:10.705Z,31.87
2019-04-10T06:45:41.964Z,32.50
2019-04-10T06:48:13.067Z,27.93
2019-04-10T06:50:44.802Z,30.77
2019-04-10T06:53:18.530Z,32.37
2019-04-10T06:55:48.902Z,30.63
2019-04-10T06:58:20.079Z,28.40
2019-04-10T07:00:53.311Z,31.03
2019-04-10T07:03:23.494Z,28.73
2019-04-10T07:06:06.213Z,33.60
2019-04-10T07:08:27.601Z,30.00
2019-04-10T07:11:05.127Z,29.00
2019-04-10T07:13:30.771Z,32.00
2019-04-10T07:16:02.167Z,26.67
2019-04-10T07:18:35.787Z,29.73
2019-04-10T07:21:06.418Z,27.17
2019-04-10T07:23:37.206Z,29.03
2019-04-10T07:26:08.069Z,26.23
2019-04-10T07:28:41.720Z,31.27
2019-04-10T07:31:11.639Z,27.33
2019-04-10T07:33:42.628Z,28.07
2019-04-10T07:36:14.123Z,30.43
2019-04-10T07:38:44.813Z,29.93
2019-04-10T07:41:21.025Z,28.27
2019-04-10T07:43:53.572Z,27.80
2019-04-10T07:46:20.266Z,29.20
2019-04-10T07:48:51.065Z,30.60
2019-04-10T07:51:21.805Z,26.83
2019-04-10T07:53:52.568Z,26.60
2019-04-10T07:56:23.318Z,30.27
2019-04-10T07:58:54.074Z,29.07
2019-04-10T08:01:24.810Z,27.17
2019-04-10T08:03:55.677Z,29.40
2019-04-10T08:06:27.702Z,24.77
2019-04-10T08:08:59.124Z,27.07
2019-04-10T08:11:30.108Z,26.30
2019-04-10T08:14:01.129Z,24.77
2019-04-10T08:16:32.890Z,25.63
2019-04-10T08:19:04.109Z,23.93
2019-04-10T08:21:35.853Z,28.53
2019-04-10T08:24:07.391Z,26.90
2019-04-10T08:26:38.818Z,25.07
2019-04-10T08:29:09.899Z,27.60
2019-04-10T08:31:40.737Z,25.20
2019-04-10T08:34:11.481Z,27.40
2019-04-10T08:36:42.231Z,25.63
2019-04-10T08:39:21.448Z,24.43
2019-04-10T08:41:46.021Z,28.33
2019-04-10T08:44:17.702Z,25.70
2019-04-10T08:46:48.494Z,24.93
2019-04-10T08:49:19.180Z,30.00
2019-04-10T08:52:34.717Z,25.13
2019-04-10T08:56:13.251Z,33.30
2019-04-10T08:59:01.400Z,27.47
2019-04-10T09:01:33.405Z,25.60
2019-04-10T09:04:04.303Z,28.30
2019-04-10T09:06:35.614Z,24.63
2019-04-10T09:09:08.026Z,23.63
2019-04-10T09:11:38.853Z,23.83
2019-04-10T09:14:10.649Z,29.17
2019-04-10T09:16:42.634Z,22.43
2019-04-10T09:19:13.946Z,23.83
2019-04-10T09:21:45.753Z,24.60
2019-04-10T09:35:22.758Z,27.23
2019-04-10T09:38:48.547Z,25.80
2019-04-10T09:41:38.297Z,24.97
2019-04-10T09:44:10.185Z,27.83
2019-04-10T09:46:41.037Z,24.13
2019-04-10T09:49:12.396Z,26.73
2019-04-10T09:51:43.307Z,25.47
2019-04-10T09:54:14.039Z,26.73
2019-04-10T09:56:44.734Z,27.70
2019-04-10T09:59:16.034Z,24.77
2019-04-10T10:01:46.837Z,25.73
2019-04-10T10:04:17.633Z,24.17
2019-04-10T10:07:20.707Z,25.87
2019-04-10T10:09:51.577Z,22.77
2019-04-10T10:12:38.764Z,25.27
2019-04-10T10:15:09.992Z,25.17
2019-04-10T10:17:41.226Z,25.00
2019-04-10T10:20:13.358Z,23.57
2019-04-10T10:22:47.490Z,24.97
2019-04-10T10:25:19.369Z,24.50
2019-04-10T10:28:01.079Z,24.40
2019-04-10T10:31:42.492Z,25.03
2019-04-10T10:38:13.107Z,23.70
2019-04-10T10:44:02.378Z,27.00
2019-04-10T10:47:06.793Z,24.83
2019-04-10T10:52:53.385Z,23.20
2019-04-10T10:55:25.322Z,26.03
2019-04-10T10:57:56.099Z,20.60
2019-04-10T11:00:27.240Z,22.23
2019-04-10T11:02:58.153Z,23.67
2019-04-10T11:05:30.810Z,24.13
2019-04-10T11:08:01.305Z,20.30
2019-04-10T11:10:32.131Z,21.10
2019-04-10T11:13:02.857Z,21.83
2019-04-10T11:15:34.141Z,22.23
2019-04-10T11:18:06.327Z,26.23
2019-04-10T11:20:37.295Z,22.87
2019-04-10T11:23:09.408Z,21.87
2019-04-10T11:25:40.514Z,21.30
2019-04-10T11:28:12.546Z,24.23
2019-04-10T11:30:44.930Z,21.53
2019-04-10T11:33:17.575Z,21.63
2019-04-10T11:35:48.205Z,24.07
2019-04-10T11:38:19.220Z,22.50
2019-04-10T11:40:52.030Z,20.53
2019-04-10T11:43:24.886Z,21.57
2019-04-10T11:45:58.201Z,25.53
2019-04-10T11:48:29.113Z,24.50
2019-04-10T11:51:01.116Z,22.47
2019-04-10T11:53:37.449Z,23.23
2019-04-10T11:56:05.665Z,21.83
2019-04-10T11:58:48.416Z,21.90
2019-04-10T12:01:08.959Z,20.77
2019-04-10T12:03:44.235Z,21.77
2019-04-10T12:06:13.669Z,20.20
2019-04-10T12:09:08.452Z,19.23
2019-04-10T12:11:19.926Z,20.90
2019-04-10T12:13:50.459Z,23.90
2019-04-10T12:16:21.338Z,24.47
2019-04-10T12:18:53.020Z,18.50
2019-04-10T12:21:24.023Z,17.10
2019-04-10T12:23:54.899Z,17.40
2019-04-10T12:26:25.634Z,19.63
2019-04-10T12:28:56.420Z,18.13
2019-04-10T12:31:28.114Z,21.80
2019-04-10T12:34:00.028Z,19.30
2019-04-10T12:36:31.439Z,21.33
2019-04-10T12:39:02.199Z,22.97
2019-04-10T12:41:33.217Z,17.93
2019-04-10T12:44:05.336Z,19.33
2019-04-10T12:46:37.267Z,19.70
2019-04-10T12:49:08.142Z,19.63
2019-04-10T12:51:38.920Z,20.83
2019-04-10T12:54:09.999Z,26.13
2019-04-10T12:56:40.711Z,19.67
2019-04-10T12:59:11.507Z,18.17
2019-04-10T13:01:42.165Z,18.57
2019-04-10T13:04:13.836Z,18.93
2019-04-10T13:06:44.624Z,21.97
2019-04-10T13:09:15.954Z,17.87
2019-04-10T13:11:46.895Z,19.77
2019-04-10T13:14:18.646Z,24.07
2019-04-10T13:16:50.135Z,18.57
2019-04-10T13:19:21.008Z,21.57
2019-04-10T13:21:51.974Z,17.97
2019-04-10T13:24:23.772Z,21.23
2019-04-10T13:26:55.171Z,18.97
2019-04-10T13:29:26.014Z,19.63
2019-04-10T13:31:56.769Z,17.83
2019-04-10T13:34:27.525Z,20.90
2019-04-10T13:36:58.281Z,17.23
2019-04-10T13:39:29.102Z,19.07
2019-04-10T13:42:00.911Z,20.53
2019-04-10T13:44:32.743Z,18.43
2019-04-10T13:47:04.996Z,15.93
2019-04-10T13:49:35.863Z,17.67
2019-04-10T13:52:07.779Z,17.43
2019-04-10T13:54:38.881Z,16.33
2019-04-10T13:57:09.830Z,16.50
2019-04-10T13:59:41.457Z,15.43
2019-04-10T14:02:17.367Z,15.73
2019-04-10T14:04:49.346Z,18.43
2019-04-10T14:07:20.262Z,17.20
2019-04-10T14:09:52.306Z,16.90
2019-04-10T14:12:23.342Z,18.53
2019-04-10T14:14:55.156Z,17.17
2019-04-10T14:17:25.997Z,17.10
2019-04-10T14:19:58.891Z,21.40
2019-04-10T14:22:29.532Z,16.53
2019-04-10T14:25:00.985Z,15.60
2019-04-10T14:27:32.087Z,17.33
2019-04-10T14:30:03.607Z,14.67
2019-04-10T14:32:38.054Z,16.40
2019-04-10T14:35:09.799Z,14.80
2019-04-10T14:37:41.300Z,21.40
2019-04-10T14:40:13.604Z,19.03
2019-04-10T14:42:44.400Z,19.17
2019-04-10T14:45:15.275Z,17.20
2019-04-10T14:47:46.272Z,19.33
2019-04-10T14:50:17.795Z,18.53
2019-04-10T14:52:49.476Z,19.17
2019-04-10T14:55:21.855Z,15.40
2019-04-10T14:57:53.095Z,14.37
2019-04-10T15:00:32.910Z,17.57
2019-04-10T15:03:04.352Z,17.47
2019-04-10T15:05:44.906Z,23.00
2019-04-10T15:08:07.566Z,20.33
2019-04-10T15:10:38.334Z,17.97
2019-04-10T15:13:14.924Z,21.93
2019-04-10T15:15:41.461Z,22.20
2019-04-10T15:18:12.930Z,22.40
2019-04-10T15:20:43.828Z,17.90
2019-04-10T15:23:15.400Z,18.70
2019-04-10T15:25:47.108Z,16.87
2019-04-10T15:28:18.082Z,20.33
2019-04-10T15:30:48.824Z,15.97
2019-04-10T15:33:20.552Z,16.40
2019-04-10T15:35:51.386Z,15.97
2019-04-10T15:38:22.132Z,17.57
2019-04-10T15:40:52.869Z,16.57
2019-04-10T15:43:24.943Z,14.03
2019-04-10T15:45:56.814Z,17.20
2019-04-10T15:48:27.758Z,16.77
2019-04-10T15:50:58.521Z,17.77
2019-04-10T15:53:29.297Z,17.03
2019-04-10T15:56:01.199Z,18.57
2019-04-10T15:58:33.278Z,18.20
2019-04-10T16:01:05.677Z,20.57
2019-04-10T16:03:36.663Z,16.23
2019-04-10T16:06:08.222Z,17.57
2019-04-10T16:08:39.089Z,18.97
2019-04-10T16:11:20.218Z,18.37
2019-04-10T16:13:53.486Z,19.13
2019-04-10T16:16:52.918Z,23.07
2019-04-10T16:19:51.521Z,19.17
2019-04-10T16:22:29.529Z,22.60
2019-04-10T16:25:03.234Z,27.07
2019-04-10T16:27:34.017Z,20.87
2019-04-10T16:30:06.664Z,22.17
2019-04-10T16:32:37.405Z,22.20
2019-04-10T16:35:09.264Z,20.77
2019-04-10T16:37:40.188Z,21.23
2019-04-10T16:40:11.796Z,21.27
2019-04-10T16:42:43.853Z,20.30
2019-04-10T16:45:15.762Z,23.03
2019-04-10T16:47:46.584Z,21.23
2019-04-10T16:50:17.526Z,17.90
2019-04-10T16:52:49.170Z,22.73
2019-04-10T16:55:20.672Z,19.63
2019-04-10T16:57:51.550Z,22.00
2019-04-10T17:00:23.592Z,23.27
2019-04-10T17:02:54.462Z,19.43
2019-04-10T17:05:25.339Z,21.27
2019-04-10T17:07:57.250Z,18.57
2019-04-10T17:10:29.579Z,19.50
2019-04-10T17:13:00.422Z,21.57
2019-04-10T17:15:32.177Z,20.17
2019-04-10T17:18:03.200Z,19.47
2019-04-10T17:20:34.040Z,19.97
2019-04-10T17:23:05.878Z,22.53
2019-04-10T17:25:38.013Z,20.40
2019-04-10T17:28:10.116Z,23.50
2019-04-10T17:30:41.911Z,20.93
2019-04-10T17:33:13.247Z,21.43
2019-04-10T17:35:44.037Z,26.60
2019-04-10T17:38:15.037Z,23.90
2019-04-10T17:40:50.879Z,23.43
2019-04-10T17:43:19.038Z,23.77
2019-04-10T17:45:50.881Z,25.47
2019-04-10T17:48:22.024Z,25.13
2019-04-10T17:50:53.312Z,24.57
2019-04-10T17:53:25.236Z,23.57
2019-04-10T17:55:56.115Z,21.47
2019-04-10T17:58:27.497Z,23.03
2019-04-10T18:00:59.746Z,20.87
2019-04-10T18:03:42.976Z,21.63
2019-04-10T18:06:03.414Z,25.20
2019-04-10T18:08:34.678Z,24.90
2019-04-10T18:11:05.893Z,22.60
2019-04-10T18:13:36.715Z,25.90
2019-04-10T18:16:08.478Z,26.03
2019-04-10T18:18:40.079Z,22.90
2019-04-10T18:21:11.033Z,23.60
2019-04-10T18:23:41.895Z,22.80
2019-04-10T18:26:12.806Z,25.67
2019-04-10T18:28:43.640Z,25.13
2019-04-10T18:31:14.564Z,22.13
2019-04-10T18:33:45.279Z,21.47
2019-04-10T18:36:16.011Z,25.87
2019-04-10T18:38:47.906Z,27.90
2019-04-10T18:41:19.879Z,25.23
2019-04-10T18:43:50.873Z,26.07
2019-04-10T18:46:22.460Z,24.33
2019-04-10T18:48:54.766Z,22.90
2019-04-10T18:51:25.858Z,24.33
2019-04-10T18:53:57.584Z,25.53
2019-04-10T18:56:29.203Z,25.90
2019-04-10T18:59:05.732Z,21.47
2019-04-10T19:01:59.136Z,25.37
2019-04-10T19:04:43.601Z,26.80
2019-04-10T19:07:15.383Z,22.40
2019-04-10T19:09:46.934Z,23.43
2019-04-10T19:12:18.782Z,26.43
2019-04-10T19:14:50.815Z,23.63
2019-04-10T19:17:22.458Z,28.87
2019-04-10T19:19:53.291Z,29.10
2019-04-10T19:22:24.332Z,23.37
2019-04-10T19:24:56.587Z,28.53
2019-04-10T19:27:28.420Z,23.20
2019-04-10T19:29:59.336Z,25.73
2019-04-10T19:32:33.853Z,26.57
2019-04-10T19:35:06.599Z,22.50
2019-04-10T19:37:38.502Z,26.23
2019-04-10T19:40:11.241Z,21.10
2019-04-10T19:42:42.150Z,23.73
2019-04-10T19:45:12.906Z,25.83
2019-04-10T19:47:44.360Z,31.87
2019-04-10T19:50:15.234Z,24.33
2019-04-10T19:52:46.751Z,23.60
2019-04-10T19:55:17.770Z,27.50
2019-04-10T19:57:48.453Z,24.60
2019-04-10T20:00:22.160Z,29.43
2019-04-10T20:02:53.104Z,25.03
2019-04-10T20:05:23.897Z,27.97
2019-04-10T20:07:55.426Z,25.07
2019-04-10T20:10:27.486Z,25.53
2019-04-10T20:12:59.395Z,24.00
2019-04-10T20:15:30.771Z,28.30
2019-04-10T20:18:02.231Z,25.13
2019-04-10T20:20:33.165Z,29.40
2019-04-10T20:23:04.640Z,26.87
2019-04-10T20:25:36.712Z,25.10
2019-04-10T20:28:07.475Z,25.23
2019-04-10T20:30:38.280Z,29.80
2019-04-10T20:33:11.718Z,25.23
2019-04-10T20:35:42.602Z,27.93
2019-04-10T20:38:13.481Z,24.30
2019-04-10T20:40:44.357Z,24.33
2019-04-10T20:43:15.324Z,23.67
2019-04-10T20:45:47.507Z,23.77
2019-04-10T20:48:18.306Z,26.30
2019-04-10T20:51:08.248Z,24.73
2019-04-10T20:53:39.959Z,23.07
2019-04-10T20:56:30.674Z,23.23
2019-04-10T20:59:01.563Z,28.57
2019-04-10T21:01:33.062Z,27.10
2019-04-10T21:04:03.843Z,27.13
2019-04-10T21:06:34.590Z,26.40
2019-04-10T21:09:07.395Z,25.73
2019-04-10T21:11:38.249Z,30.13
2019-04-10T21:14:09.250Z,26.63
2019-04-10T21:16:40.159Z,27.33
2019-04-10T21:19:11.137Z,31.30
2019-04-10T21:21:42.028Z,25.87
2019-04-10T21:24:13.355Z,24.27
2019-04-10T21:26:44.414Z,29.10
2019-04-10T21:29:21.024Z,27.70
2019-04-10T21:32:17.356Z,27.63
2019-04-10T21:34:48.505Z,27.73
2019-04-10T21:37:19.213Z,26.43
2019-04-10T21:39:50.054Z,26.73
2019-04-10T21:42:23.850Z,27.37
2019-04-10T21:44:53.369Z,26.40
2019-04-10T21:47:25.605Z,26.30
2019-04-10T21:49:56.886Z,23.30
2019-04-10T21:52:27.746Z,30.57
2019-04-10T21:55:00.389Z,25.30
2019-04-10T21:57:30.714Z,29.90
2019-04-10T22:00:01.672Z,31.77
2019-04-10T22:02:32.301Z,29.00
2019-04-10T22:05:03.815Z,29.40
2019-04-10T22:07:52.358Z,27.40
2019-04-10T22:10:48.282Z,36.87
2019-04-10T22:13:19.783Z,28.47
2019-04-10T22:15:50.605Z,27.53
2019-04-10T22:18:21.317Z,28.53
2019-04-10T22:20:52.118Z,28.67
2019-04-10T22:23:22.835Z,26.53
2019-04-10T22:25:54.280Z,30.97
2019-04-10T22:28:25.335Z,25.67
2019-04-10T22:30:56.155Z,30.17
2019-04-10T22:33:27.810Z,30.80
2019-04-10T22:35:58.621Z,30.83
2019-04-10T22:38:29.425Z,29.60
2019-04-10T22:41:00.228Z,27.37
2019-04-10T22:43:31.934Z,28.43
2019-04-10T22:46:02.886Z,33.33
2019-04-10T22:48:33.785Z,27.63
2019-04-10T22:51:04.975Z,28.57
2019-04-10T22:53:37.436Z,35.53
2019-04-10T22:56:08.914Z,36.93
2019-04-10T22:58:39.731Z,26.00
2019-04-10T23:01:11.186Z,28.30
2019-04-10T23:03:41.813Z,26.77
2019-04-10T23:06:13.277Z,29.20
2019-04-10T23:08:44.076Z,27.50
2019-04-10T23:11:15.231Z,29.57
2019-04-10T23:13:45.978Z,30.37
2019-04-10T23:16:17.466Z,29.33
2019-04-10T23:18:48.241Z,30.03
2019-04-10T23:21:19.017Z,34.53
2019-04-10T23:23:50.038Z,29.53
2019-04-10T23:26:20.870Z,29.23
2019-04-10T23:28:51.806Z,29.13
2019-04-10T23:31:23.648Z,29.80
2019-04-10T23:33:54.552Z,34.83
2019-04-10T23:36:26.371Z,30.17
2019-04-10T23:38:57.651Z,32.50
2019-04-10T23:41:29.524Z,30.70
2019-04-10T23:44:00.316Z,27.90
2019-04-10T23:46:31.031Z,31.60
2019-04-10T23:49:02.869Z,29.43
2019-04-10T23:51:34.837Z,27.10
2019-04-10T23:54:05.782Z,28.70
2019-04-10T23:56:36.505Z,31.93
2019-04-10T23:59:07.234Z,29.50
